createdAt,value
2019-03-20T00:04:50.980Z,103239.61
2019-03-20T00:09:52.578Z,103244.87
2019-03-20T00:14:54.150Z,103233.52
2019-03-20T00:19:55.769Z,103238.41
2019-03-20T00:24:57.361Z,103237.97
2019-03-20T00:29:59.024Z,103239.58
2019-03-20T00:35:01.499Z,103238.17
2019-03-20T00:40:04.011Z,103235.87
2019-03-20T00:45:06.848Z,103222.06
2019-03-20T00:50:10.973Z,103228.59
2019-03-20T00:55:12.503Z,103236.84
2019-03-20T01:00:15.497Z,103238.03
2019-03-20T01:05:17.038Z,103236.09
2019-03-20T01:10:18.713Z,103232.17
2019-03-20T01:15:20.681Z,103228.35
2019-03-20T01:20:22.274Z,103235.04
2019-03-20T01:25:23.822Z,103232.83
2019-03-20T01:30:25.395Z,103245.69
2019-03-20T01:35:27.339Z,103233.41
2019-03-20T01:40:28.998Z,103230.80
2019-03-20T01:45:30.542Z,103221.75
2019-03-20T01:50:32.113Z,103219.27
2019-03-20T01:55:33.707Z,103220.58
2019-03-20T02:00:35.295Z,103213.13
2019-03-20T02:05:36.868Z,103219.27
2019-03-20T02:10:38.489Z,103215.58
2019-03-20T02:15:40.160Z,103221.89
2019-03-20T02:20:43.141Z,103210.13
2019-03-20T02:25:44.709Z,103218.89
2019-03-20T02:30:46.357Z,103212.20
2019-03-20T02:35:51.814Z,103205.83
2019-03-20T02:40:51.539Z,103204.38
2019-03-20T02:45:53.562Z,103195.23
2019-03-20T02:50:55.125Z,103210.69
2019-03-20T02:55:56.769Z,103217.34
2019-03-20T03:00:58.375Z,103218.66
2019-03-20T03:06:06.877Z,103203.63
2019-03-20T03:11:03.579Z,103199.72
2019-03-20T03:16:05.185Z,103197.80
2019-03-20T03:21:06.802Z,103204.84
2019-03-20T03:26:09.139Z,103216.34
2019-03-20T03:31:10.718Z,103218.07
2019-03-20T03:36:21.355Z,103209.96
2019-03-20T03:41:16.701Z,103207.23
2019-03-20T03:46:18.292Z,103215.45
2019-03-20T03:51:20.206Z,103217.41
2019-03-20T03:56:22.186Z,103208.64
2019-03-20T04:01:23.778Z,103205.49
2019-03-20T04:06:35.600Z,103213.59
2019-03-20T04:11:29.585Z,103189.50
2019-03-20T04:16:31.687Z,103188.66
2019-03-20T04:21:33.244Z,103199.37
2019-03-20T04:26:35.190Z,103202.77
2019-03-20T04:31:36.776Z,103201.45
2019-03-20T04:36:47.258Z,103211.66
2019-03-20T04:41:43.120Z,103212.49
2019-03-20T04:46:45.069Z,103218.53
2019-03-20T04:51:47.640Z,103223.24
2019-03-20T04:56:49.314Z,103228.74
2019-03-20T05:01:51.050Z,103236.86
2019-03-20T05:06:58.685Z,103245.52
2019-03-20T05:11:56.105Z,103252.17
2019-03-20T05:16:57.721Z,103253.22
2019-03-20T05:21:59.274Z,103246.58
2019-03-20T05:27:00.895Z,103249.08
2019-03-20T05:32:02.496Z,103260.86
2019-03-20T05:37:10.413Z,103267.02
2019-03-20T05:42:07.891Z,103264.30
2019-03-20T05:47:10.476Z,103274.62
2019-03-20T05:52:12.144Z,103272.81
2019-03-20T05:57:14.143Z,103271.01
2019-03-20T06:02:15.978Z,103277.94
2019-03-20T06:07:21.795Z,103288.80
2019-03-20T06:12:23.221Z,103297.96
2019-03-20T06:17:24.818Z,103291.47
2019-03-20T06:22:26.470Z,103307.98
2019-03-20T06:27:28.409Z,103301.70
2019-03-20T06:32:30.049Z,103305.09
2019-03-20T06:37:32.869Z,103307.86
2019-03-20T06:42:34.705Z,103308.63
2019-03-20T06:47:36.572Z,103310.74
2019-03-20T06:52:38.177Z,103320.44
2019-03-20T06:57:39.735Z,103331.83
2019-03-20T07:02:46.648Z,103340.22
2019-03-20T07:07:48.653Z,103342.71
2019-03-20T07:12:53.267Z,103343.09
2019-03-20T07:17:55.145Z,103341.41
2019-03-20T07:22:56.755Z,103344.15
2019-03-20T07:27:58.353Z,103341.66
2019-03-20T07:32:59.954Z,103343.48
2019-03-20T07:38:01.652Z,103347.66
2019-03-20T07:43:08.838Z,103351.58
2019-03-20T07:48:07.115Z,103348.00
2019-03-20T07:53:08.836Z,103355.56
2019-03-20T07:58:10.433Z,103358.56
2019-03-20T08:03:12.356Z,103360.21
2019-03-20T08:08:13.942Z,103356.08
2019-03-20T08:13:15.574Z,103352.85
2019-03-20T08:18:17.895Z,103362.64
2019-03-20T08:23:19.767Z,103368.23
2019-03-20T08:28:21.384Z,103374.80
2019-03-20T08:33:23.053Z,103384.00
2019-03-20T08:38:24.709Z,103394.52
2019-03-20T08:43:26.360Z,103388.18
2019-03-20T08:48:27.927Z,103389.84
2019-03-20T08:53:29.495Z,103389.39
2019-03-20T08:58:31.197Z,103383.45
2019-03-20T09:03:32.903Z,103385.80
2019-03-20T09:08:34.900Z,103398.38
2019-03-20T09:13:36.548Z,103410.95
2019-03-20T09:18:38.207Z,103413.70
2019-03-20T09:23:40.950Z,103422.45
2019-03-20T09:28:42.659Z,103431.77
2019-03-20T09:33:44.613Z,103440.25
2019-03-20T09:38:46.197Z,103446.16
2019-03-20T09:43:48.175Z,103444.91
2019-03-20T09:48:50.173Z,103435.61
2019-03-20T09:53:51.927Z,103438.30
2019-03-20T09:58:53.474Z,103440.94
2019-03-20T10:03:55.062Z,103451.25
2019-03-20T10:08:56.697Z,103450.78
2019-03-20T10:13:58.354Z,103442.72
2019-03-20T10:19:00.430Z,103446.47
2019-03-20T10:24:02.081Z,103449.50
2019-03-20T10:29:03.686Z,103458.34
2019-03-20T10:34:05.327Z,103447.09
2019-03-20T10:39:07.470Z,103459.91
2019-03-20T10:44:09.120Z,103467.03
2019-03-20T10:49:11.410Z,103472.00
2019-03-20T10:54:13.128Z,103477.47
2019-03-20T10:59:14.747Z,103473.17
2019-03-20T11:04:16.727Z,103482.50
2019-03-20T11:09:18.817Z,103491.52
2019-03-20T11:14:20.689Z,103497.23
2019-03-20T11:19:22.794Z,103503.25
2019-03-20T11:24:24.487Z,103501.83
2019-03-20T11:29:26.203Z,103501.10
2019-03-20T11:34:27.751Z,103505.06
2019-03-20T11:39:30.135Z,103498.50
2019-03-20T11:44:31.810Z,103487.72
2019-03-20T11:49:33.478Z,103489.16
2019-03-20T11:54:35.170Z,103494.05
2019-03-20T11:59:36.955Z,103499.54
2019-03-20T12:04:38.547Z,103494.71
2019-03-20T12:09:41.214Z,103502.75
2019-03-20T12:14:43.266Z,103505.10
2019-03-20T12:19:46.022Z,103507.72
2019-03-20T12:24:47.609Z,103509.84
2019-03-20T12:29:50.050Z,103506.91
2019-03-20T12:34:51.714Z,103506.48
2019-03-20T12:39:54.191Z,103491.58
2019-03-20T12:44:55.790Z,103487.56
2019-03-20T12:49:57.389Z,103489.16
2019-03-20T12:54:59.356Z,103494.73
2019-03-20T13:00:01.829Z,103497.61
2019-03-20T13:05:04.160Z,103492.44
2019-03-20T13:10:07.462Z,103492.92
2019-03-20T13:15:11.924Z,103495.46
2019-03-20T13:20:13.797Z,103485.14
2019-03-20T13:25:15.517Z,103487.37
2019-03-20T13:30:20.647Z,103480.84
2019-03-20T13:35:22.480Z,103478.00
2019-03-20T13:40:24.488Z,103486.33
2019-03-20T13:45:26.235Z,103473.23
2019-03-20T13:50:27.833Z,103458.22
2019-03-20T13:55:29.389Z,103461.02
2019-03-20T14:00:31.068Z,103464.66
2019-03-20T14:05:33.440Z,103466.50
2019-03-20T14:10:49.605Z,103443.03
2019-03-20T14:15:38.695Z,103459.97
2019-03-20T14:20:40.724Z,103454.00
2019-03-20T14:25:42.406Z,103450.88
2019-03-20T14:30:44.013Z,103453.58
2019-03-20T14:35:45.961Z,103456.22
2019-03-20T14:40:47.654Z,103444.13
2019-03-20T14:45:52.430Z,103449.17
2019-03-20T14:50:54.044Z,103450.62
2019-03-20T14:55:55.819Z,103455.73
2019-03-20T15:00:57.799Z,103447.50
2019-03-20T15:06:01.430Z,103449.55
2019-03-20T15:11:04.290Z,103449.55
2019-03-20T15:16:09.072Z,103445.74
2019-03-20T15:21:10.779Z,103449.16
2019-03-20T15:26:13.020Z,103449.61
2019-03-20T15:31:14.615Z,103441.97
2019-03-20T15:36:17.168Z,103449.50
2019-03-20T15:41:18.793Z,103460.19
2019-03-20T15:46:21.443Z,103459.48
2019-03-20T15:51:23.066Z,103458.05
2019-03-20T15:56:24.707Z,103457.23
2019-03-20T16:01:26.730Z,103457.05
2019-03-20T16:06:28.761Z,103461.31
2019-03-20T16:11:30.395Z,103461.81
2019-03-20T16:16:32.158Z,103459.05
2019-03-20T16:21:35.323Z,103458.38
2019-03-20T16:26:36.904Z,103461.60
2019-03-20T16:31:38.537Z,103454.20
2019-03-20T16:36:40.195Z,103465.14
2019-03-20T16:41:42.721Z,103467.86
2019-03-20T16:46:44.863Z,103467.44
2019-03-20T16:51:47.793Z,103478.88
2019-03-20T16:56:49.930Z,103489.13
2019-03-20T17:01:51.793Z,103489.84
2019-03-20T17:06:53.529Z,103494.28
2019-03-20T17:11:55.753Z,103494.01
2019-03-20T17:16:57.945Z,103491.03
2019-03-20T17:22:00.041Z,103490.86
2019-03-20T17:27:02.409Z,103504.13
2019-03-20T17:32:04.338Z,103496.22
2019-03-20T17:37:06.791Z,103501.14
2019-03-20T17:42:08.724Z,103495.16
2019-03-20T17:47:10.568Z,103499.11
2019-03-20T17:52:12.192Z,103499.98
2019-03-20T17:57:14.618Z,103499.76
2019-03-20T18:02:23.590Z,103504.92
2019-03-20T18:07:21.095Z,103512.08
2019-03-20T18:12:23.029Z,103516.34
2019-03-20T18:17:24.742Z,103513.25
2019-03-20T18:22:26.497Z,103525.11
2019-03-20T18:27:28.987Z,103528.05
2019-03-20T18:32:30.578Z,103539.79
2019-03-20T18:37:32.193Z,103537.48
2019-03-20T18:42:34.101Z,103537.77
2019-03-20T18:47:36.270Z,103538.13
2019-03-20T18:52:38.590Z,103545.65
2019-03-20T18:57:40.848Z,103552.47
2019-03-20T19:02:42.487Z,103552.07
2019-03-20T19:07:44.268Z,103556.95
2019-03-20T19:12:46.382Z,103556.23
2019-03-20T19:17:48.600Z,103567.45
2019-03-20T19:22:51.003Z,103561.66
2019-03-20T19:27:52.634Z,103559.60
2019-03-20T19:32:54.578Z,103568.67
2019-03-20T19:37:56.604Z,103565.55
2019-03-20T19:42:58.409Z,103567.50
2019-03-20T19:48:00.311Z,103563.26
2019-03-20T19:53:02.286Z,103560.78
2019-03-20T19:58:04.240Z,103561.36
2019-03-20T20:03:05.898Z,103566.14
2019-03-20T20:08:08.005Z,103564.24
2019-03-20T20:13:09.739Z,103559.57
2019-03-20T20:18:12.331Z,103568.23
2019-03-20T20:23:14.497Z,103568.17
2019-03-20T20:28:16.228Z,103574.78
2019-03-20T20:33:19.393Z,103581.39
2019-03-20T20:38:20.962Z,103581.70
2019-03-20T20:43:22.582Z,103585.15
2019-03-20T20:48:24.404Z,103587.27
2019-03-20T20:53:26.090Z,103588.08
2019-03-20T20:58:28.016Z,103580.52
2019-03-20T21:03:29.709Z,103582.83
2019-03-20T21:08:32.390Z,103581.64
2019-03-20T21:13:34.149Z,103577.20
2019-03-20T21:19:15.216Z,103571.70
2019-03-20T21:24:21.594Z,103565.70
2019-03-20T21:30:13.304Z,103563.34
2019-03-20T21:36:08.958Z,103561.13
2019-03-20T21:41:55.697Z,103563.88
2019-03-20T21:47:26.693Z,103562.95
2019-03-20T21:52:28.962Z,103557.56
2019-03-20T21:58:02.366Z,103552.44
2019-03-20T22:03:04.577Z,103555.55
2019-03-20T22:08:08.546Z,103561.19
2019-03-20T22:13:19.084Z,103554.23
2019-03-20T22:18:57.628Z,103556.43
2019-03-20T22:24:36.869Z,103554.97
2019-03-20T22:29:39.052Z,103549.72
2019-03-20T22:34:54.867Z,103561.63
2019-03-20T22:40:52.330Z,103554.30
2019-03-20T22:46:37.544Z,103558.06
2019-03-20T22:51:57.589Z,103553.74
2019-03-20T22:57:33.412Z,103555.81
2019-03-20T23:02:57.808Z,103559.19
2019-03-20T23:07:59.901Z,103553.27
2019-03-20T23:13:02.119Z,103556.16
2019-03-20T23:18:04.314Z,103561.77
2019-03-20T23:23:06.564Z,103567.12
2019-03-20T23:28:08.704Z,103563.81
2019-03-20T23:33:10.958Z,103567.46
2019-03-20T23:38:13.062Z,103564.73
2019-03-20T23:43:15.263Z,103561.87
2019-03-20T23:48:24.699Z,103558.61
2019-03-20T23:53:26.876Z,103558.89
2019-03-20T23:58:29.073Z,103555.33
